createdAt,value
2019-03-10T00:02:11.367Z,76.87
2019-03-10T00:05:17.754Z,76.70
2019-03-10T00:08:24.897Z,75.94
2019-03-10T00:11:31.851Z,76.41
2019-03-10T00:14:38.450Z,76.88
2019-03-10T00:17:45.332Z,76.31
2019-03-10T00:20:51.821Z,76.24
2019-03-10T00:23:58.320Z,74.80
2019-03-10T00:27:05.264Z,74.95
2019-03-10T00:30:12.065Z,75.29
2019-03-10T00:33:18.715Z,75.97
2019-03-10T00:36:25.507Z,75.04
2019-03-10T00:40:07.141Z,74.86
2019-03-10T00:44:05.987Z,74.88
2019-03-10T00:48:02.307Z,74.97
2019-03-10T00:51:31.685Z,74.94
2019-03-10T00:54:38.434Z,74.91
2019-03-10T00:57:45.128Z,75.47
2019-03-10T01:00:52.441Z,75.50
2019-03-10T01:03:58.707Z,75.54
2019-03-10T01:07:05.060Z,74.74
2019-03-10T01:10:11.652Z,74.98
2019-03-10T01:13:19.915Z,75.35
2019-03-10T01:16:26.742Z,75.65
2019-03-10T01:19:34.338Z,75.62
2019-03-10T01:22:41.900Z,75.93
2019-03-10T01:25:48.704Z,75.69
2019-03-10T01:28:55.056Z,75.78
2019-03-10T01:32:37.138Z,76.47
2019-03-10T01:35:43.772Z,76.73
2019-03-10T01:38:50.361Z,77.78
2019-03-10T01:41:57.713Z,77.29
2019-03-10T01:45:04.836Z,77.58
2019-03-10T01:48:11.320Z,77.71
2019-03-10T01:51:17.974Z,77.36
2019-03-10T01:54:24.700Z,76.91
2019-03-10T01:57:31.665Z,76.97
2019-03-10T02:00:38.432Z,76.27
2019-03-10T02:03:45.510Z,76.19
2019-03-10T02:06:52.029Z,76.68
2019-03-10T02:09:58.997Z,76.01
2019-03-10T02:13:06.767Z,76.18
2019-03-10T02:16:13.960Z,75.82
2019-03-10T02:19:20.764Z,76.45
2019-03-10T02:22:27.367Z,76.64
2019-03-10T02:25:34.122Z,76.73
2019-03-10T02:28:40.490Z,76.20
2019-03-10T02:31:48.130Z,76.49
2019-03-10T02:34:55.007Z,77.85
2019-03-10T02:38:02.068Z,77.42
2019-03-10T02:41:08.883Z,77.80
2019-03-10T02:44:15.760Z,78.16
2019-03-10T02:47:22.649Z,78.43
2019-03-10T02:50:29.685Z,77.87
2019-03-10T02:53:36.017Z,78.57
2019-03-10T02:56:42.799Z,79.36
2019-03-10T02:59:49.608Z,79.86
2019-03-10T03:02:56.257Z,80.49
2019-03-10T03:06:02.608Z,80.82
2019-03-10T03:09:09.369Z,81.05
2019-03-10T03:12:15.838Z,79.29
2019-03-10T03:15:22.876Z,79.44
2019-03-10T03:18:29.793Z,78.62
2019-03-10T03:21:43.560Z,78.61
2019-03-10T03:24:46.812Z,78.25
2019-03-10T03:27:53.286Z,78.44
2019-03-10T03:30:59.576Z,78.11
2019-03-10T03:34:05.990Z,78.48
2019-03-10T03:37:15.966Z,78.10
2019-03-10T03:40:22.831Z,78.16
2019-03-10T03:43:29.256Z,77.89
2019-03-10T03:46:36.538Z,77.25
2019-03-10T03:49:43.024Z,77.51
2019-03-10T03:52:49.581Z,78.24
2019-03-10T03:55:56.564Z,78.42
2019-03-10T03:59:02.854Z,78.73
2019-03-10T04:02:13.098Z,78.37
2019-03-10T04:05:20.224Z,77.57
2019-03-10T04:08:26.871Z,77.31
2019-03-10T04:11:33.541Z,77.94
2019-03-10T04:14:41.099Z,78.18
2019-03-10T04:17:47.860Z,78.35
2019-03-10T04:20:54.490Z,77.77
2019-03-10T04:24:01.121Z,78.76
2019-03-10T04:27:08.921Z,78.70
2019-03-10T04:30:15.848Z,78.46
2019-03-10T04:33:22.542Z,78.30
2019-03-10T04:36:29.005Z,78.04
2019-03-10T04:39:35.335Z,78.86
2019-03-10T04:42:41.779Z,78.59
2019-03-10T04:45:48.102Z,78.49
2019-03-10T04:48:58.861Z,78.05
2019-03-10T04:52:05.477Z,78.22
2019-03-10T04:55:23.776Z,78.79
2019-03-10T04:58:30.335Z,79.35
2019-03-10T05:01:37.464Z,80.61
2019-03-10T05:04:44.095Z,79.45
2019-03-10T05:07:50.518Z,80.18
2019-03-10T05:10:57.298Z,81.32
2019-03-10T05:14:04.156Z,81.88
2019-03-10T05:17:10.981Z,82.19
2019-03-10T05:20:17.489Z,82.42
2019-03-10T05:23:45.419Z,83.33
2019-03-10T05:26:52.510Z,83.25
2019-03-10T05:29:59.255Z,84.56
2019-03-10T05:33:05.736Z,85.15
2019-03-10T05:36:12.763Z,85.95
2019-03-10T05:39:19.585Z,84.17
2019-03-10T05:42:25.976Z,86.37
2019-03-10T05:45:32.744Z,86.58
2019-03-10T05:48:39.203Z,86.14
2019-03-10T05:51:45.587Z,87.31
2019-03-10T05:54:51.893Z,87.42
2019-03-10T05:57:58.594Z,87.59
2019-03-10T06:01:04.983Z,87.63
2019-03-10T06:04:11.214Z,87.94
2019-03-10T06:07:17.720Z,89.59
2019-03-10T06:10:24.225Z,90.13
2019-03-10T06:13:30.889Z,90.77
2019-03-10T06:16:37.857Z,90.38
2019-03-10T06:19:44.553Z,90.14
2019-03-10T06:22:51.283Z,90.09
2019-03-10T06:25:57.896Z,90.59
2019-03-10T06:29:04.723Z,90.99
2019-03-10T06:32:11.266Z,91.23
2019-03-10T06:35:17.911Z,88.93
2019-03-10T06:38:24.855Z,87.44
2019-03-10T06:41:34.503Z,87.88
2019-03-10T06:44:40.900Z,87.38
2019-03-10T06:47:47.585Z,85.72
2019-03-10T06:50:53.946Z,86.73
2019-03-10T06:54:00.681Z,86.86
2019-03-10T06:57:07.731Z,87.74
2019-03-10T07:00:14.578Z,88.34
2019-03-10T07:03:21.311Z,88.90
2019-03-10T07:06:27.917Z,88.18
2019-03-10T07:09:34.847Z,88.25
2019-03-10T07:12:41.395Z,88.06
2019-03-10T07:15:48.500Z,87.58
2019-03-10T07:18:55.520Z,86.90
2019-03-10T07:22:02.472Z,86.96
2019-03-10T07:25:09.247Z,87.07
2019-03-10T07:28:21.528Z,87.96
2019-03-10T07:31:46.186Z,86.70
2019-03-10T07:35:26.839Z,86.46
2019-03-10T07:38:54.786Z,86.11
2019-03-10T07:42:20.389Z,86.21
2019-03-10T07:45:42.889Z,85.42
2019-03-10T07:49:07.633Z,85.35
2019-03-10T07:52:39.468Z,86.17
2019-03-10T07:56:08.108Z,86.17
2019-03-10T07:59:45.866Z,85.94
2019-03-10T08:03:11.575Z,86.28
2019-03-10T08:06:27.693Z,85.67
2019-03-10T08:09:59.120Z,85.91
2019-03-10T08:13:11.405Z,85.59
2019-03-10T08:16:36.880Z,85.64
2019-03-10T08:20:05.771Z,85.90
2019-03-10T08:23:22.941Z,87.08
2019-03-10T08:26:48.757Z,86.61
2019-03-10T08:30:08.252Z,86.37
2019-03-10T08:33:31.942Z,86.34
2019-03-10T08:36:48.747Z,86.73
2019-03-10T08:40:17.605Z,85.67
2019-03-10T08:44:01.648Z,86.55
2019-03-10T08:47:34.186Z,86.45
2019-03-10T08:50:47.022Z,87.05
2019-03-10T08:54:24.873Z,86.71
2019-03-10T08:57:50.343Z,87.58
2019-03-10T09:01:21.876Z,87.77
2019-03-10T09:04:46.900Z,86.84
2019-03-10T09:08:13.476Z,86.64
2019-03-10T09:11:39.902Z,86.58
2019-03-10T09:14:55.439Z,86.19
2019-03-10T09:18:33.732Z,86.60
2019-03-10T09:21:52.034Z,85.50
2019-03-10T09:25:24.370Z,84.34
2019-03-10T09:29:08.904Z,84.48
2019-03-10T09:32:39.399Z,85.23
2019-03-10T09:36:02.191Z,82.46
2019-03-10T09:39:30.103Z,83.21
2019-03-10T09:43:08.988Z,82.99
2019-03-10T09:46:24.897Z,82.33
2019-03-10T09:49:41.240Z,81.33
2019-03-10T09:53:05.473Z,80.90
2019-03-10T09:56:40.006Z,82.47
2019-03-10T10:00:09.244Z,82.44
2019-03-10T10:03:31.070Z,81.42
2019-03-10T10:06:57.329Z,82.20
2019-03-10T10:13:45.061Z,80.83
2019-03-10T10:17:10.076Z,81.66
2019-03-10T10:20:38.921Z,82.52
2019-03-10T10:24:04.163Z,82.68
2019-03-10T10:27:35.464Z,83.57
2019-03-10T10:30:55.342Z,83.17
2019-03-10T10:34:36.867Z,82.64
2019-03-10T10:38:02.613Z,79.92
2019-03-10T10:41:29.116Z,81.91
2019-03-10T10:44:56.190Z,83.25
2019-03-10T10:48:26.106Z,83.25
2019-03-10T10:51:52.484Z,82.75
2019-03-10T10:55:11.010Z,80.44
2019-03-10T10:58:34.373Z,82.42
2019-03-10T11:01:48.203Z,82.37
2019-03-10T11:05:06.106Z,82.84
2019-03-10T11:08:36.135Z,81.09
2019-03-10T11:12:20.311Z,82.26
2019-03-10T11:15:44.876Z,84.25
2019-03-10T11:19:01.620Z,84.68
2019-03-10T11:22:33.609Z,82.16
2019-03-10T11:26:01.990Z,81.63
2019-03-10T11:29:19.008Z,81.46
2019-03-10T11:32:42.569Z,81.74
2019-03-10T11:35:57.112Z,82.27
2019-03-10T11:39:29.343Z,81.75
2019-03-10T11:42:42.158Z,82.17
2019-03-10T11:46:22.686Z,83.61
2019-03-10T11:50:04.203Z,83.74
2019-03-10T11:53:19.437Z,83.89
2019-03-10T11:56:32.603Z,83.12
2019-03-10T11:59:44.632Z,82.61
2019-03-10T12:03:02.588Z,80.79
2019-03-10T12:06:30.795Z,79.17
2019-03-10T12:09:37.740Z,79.82
2019-03-10T12:12:46.245Z,78.87
2019-03-10T12:15:53.319Z,77.19
2019-03-10T12:19:01.075Z,77.09
2019-03-10T12:22:09.052Z,78.05
2019-03-10T12:25:16.566Z,78.72
2019-03-10T12:28:25.412Z,79.11
2019-03-10T12:31:40.645Z,78.41
2019-03-10T12:34:47.720Z,77.85
2019-03-10T12:37:58.161Z,78.98
2019-03-10T12:41:06.280Z,79.13
2019-03-10T12:44:13.429Z,79.63
2019-03-10T12:47:20.331Z,81.81
2019-03-10T12:50:27.101Z,80.79
2019-03-10T12:53:33.966Z,80.60
2019-03-10T12:56:41.078Z,80.94
2019-03-10T12:59:48.559Z,80.83
2019-03-10T13:02:55.448Z,80.05
2019-03-10T13:06:02.971Z,78.97
2019-03-10T13:09:11.331Z,78.05
2019-03-10T13:12:18.616Z,77.28
2019-03-10T13:15:25.787Z,76.18
2019-03-10T13:18:32.643Z,77.04
2019-03-10T13:21:44.151Z,74.71
2019-03-10T13:24:51.510Z,71.71
2019-03-10T13:27:58.668Z,73.01
2019-03-10T13:31:05.591Z,69.65
2019-03-10T13:34:14.216Z,72.81
2019-03-10T13:37:21.565Z,71.33
2019-03-10T13:40:29.058Z,71.84
2019-03-10T13:43:36.221Z,71.51
2019-03-10T13:46:44.107Z,71.24
2019-03-10T13:49:54.995Z,69.33
2019-03-10T13:53:02.023Z,69.66
2019-03-10T13:56:09.620Z,71.65
2019-03-10T13:59:16.622Z,69.27
2019-03-10T14:02:23.222Z,70.64
2019-03-10T14:05:32.217Z,71.14
2019-03-10T14:08:39.007Z,70.82
2019-03-10T14:11:46.258Z,69.50
2019-03-10T14:14:53.000Z,69.24
2019-03-10T14:18:01.235Z,70.52
2019-03-10T14:21:09.103Z,69.88
2019-03-10T14:24:15.879Z,69.98
2019-03-10T14:27:22.927Z,70.75
2019-03-10T14:30:30.644Z,71.92
2019-03-10T14:33:37.830Z,72.15
2019-03-10T14:36:45.325Z,74.68
2019-03-10T14:39:55.331Z,75.93
2019-03-10T14:43:05.366Z,77.02
2019-03-10T14:46:15.931Z,77.68
2019-03-10T14:49:23.738Z,77.72
2019-03-10T14:52:31.959Z,80.08
2019-03-10T14:55:39.864Z,78.87
2019-03-10T14:58:46.259Z,80.88
2019-03-10T15:01:54.211Z,81.90
2019-03-10T15:05:02.129Z,81.54
2019-03-10T15:08:11.217Z,82.82
2019-03-10T15:11:19.692Z,82.89
2019-03-10T15:14:28.436Z,79.85
2019-03-10T15:17:36.867Z,79.41
2019-03-10T15:20:46.567Z,80.51
2019-03-10T15:23:55.102Z,80.91
2019-03-10T15:27:04.375Z,81.18
2019-03-10T15:30:17.088Z,81.95
2019-03-10T15:33:25.491Z,80.64
2019-03-10T15:36:33.043Z,80.85
2019-03-10T15:39:42.076Z,78.17
2019-03-10T15:42:49.704Z,76.98
2019-03-10T15:45:58.075Z,77.76
2019-03-10T15:49:08.181Z,77.29
2019-03-10T15:52:14.849Z,77.08
2019-03-10T15:55:23.841Z,75.80
2019-03-10T15:58:31.192Z,75.11
2019-03-10T16:01:48.646Z,72.94
2019-03-10T16:05:00.444Z,74.66
2019-03-10T16:08:09.321Z,72.06
2019-03-10T16:11:18.328Z,71.49
2019-03-10T16:14:26.260Z,71.61
2019-03-10T16:17:34.530Z,71.32
2019-03-10T16:20:41.641Z,72.13
2019-03-10T16:23:48.980Z,71.81
2019-03-10T16:27:00.705Z,73.11
2019-03-10T16:30:14.824Z,72.06
2019-03-10T16:33:25.422Z,71.46
2019-03-10T16:36:32.998Z,72.26
2019-03-10T16:39:40.969Z,70.58
2019-03-10T16:42:48.905Z,70.58
2019-03-10T16:45:56.506Z,70.79
2019-03-10T16:49:03.943Z,73.35
2019-03-10T16:52:16.232Z,74.25
2019-03-10T16:55:28.086Z,76.15
2019-03-10T16:58:38.845Z,77.88
2019-03-10T17:01:47.157Z,75.64
2019-03-10T17:04:54.298Z,72.66
2019-03-10T17:08:05.720Z,73.19
2019-03-10T17:11:15.590Z,72.90
2019-03-10T17:14:24.470Z,71.16
2019-03-10T17:17:31.538Z,71.13
2019-03-10T17:20:38.719Z,71.76
2019-03-10T17:23:45.508Z,70.60
2019-03-10T17:26:52.555Z,71.12
2019-03-10T17:29:59.348Z,69.93
2019-03-10T17:33:06.221Z,69.20
2019-03-10T17:36:12.937Z,68.06
2019-03-10T17:39:20.818Z,69.30
2019-03-10T17:42:27.873Z,70.38
2019-03-10T17:45:34.382Z,70.00
2019-03-10T17:48:40.907Z,70.54
2019-03-10T17:51:48.850Z,72.26
2019-03-10T17:54:55.917Z,72.73
2019-03-10T17:58:02.710Z,73.42
2019-03-10T18:01:10.299Z,73.37
2019-03-10T18:04:19.677Z,72.32
2019-03-10T18:07:31.721Z,73.24
2019-03-10T18:10:40.236Z,70.98
2019-03-10T18:13:56.686Z,71.56
2019-03-10T18:17:05.334Z,70.51
2019-03-10T18:20:15.267Z,70.56
2019-03-10T18:23:25.865Z,69.28
2019-03-10T18:26:37.506Z,66.71
2019-03-10T18:29:47.985Z,67.39
2019-03-10T18:33:00.853Z,67.00
2019-03-10T18:36:08.724Z,66.26
2019-03-10T18:39:20.313Z,66.48
2019-03-10T18:42:34.253Z,65.88
2019-03-10T18:45:51.901Z,66.56
2019-03-10T18:49:03.117Z,65.31
2019-03-10T18:52:16.560Z,65.51
2019-03-10T18:55:27.194Z,65.23
2019-03-10T18:58:36.694Z,65.07
2019-03-10T19:01:50.400Z,64.92
2019-03-10T19:05:02.666Z,65.25
2019-03-10T19:08:15.111Z,65.17
2019-03-10T19:11:27.217Z,64.65
2019-03-10T19:14:37.513Z,63.39
2019-03-10T19:17:44.188Z,64.30
2019-03-10T19:20:50.770Z,64.68
2019-03-10T19:23:57.574Z,64.41
2019-03-10T19:27:04.710Z,64.49
2019-03-10T19:30:13.863Z,65.33
2019-03-10T19:33:20.356Z,64.91
2019-03-10T19:36:30.221Z,66.49
2019-03-10T19:39:37.694Z,69.27
2019-03-10T19:42:44.655Z,69.72
2019-03-10T19:45:51.996Z,69.53
2019-03-10T19:48:59.271Z,70.26
2019-03-10T19:52:06.801Z,69.57
2019-03-10T19:55:19.878Z,69.16
2019-03-10T19:58:27.038Z,71.01
2019-03-10T20:01:36.526Z,67.63
2019-03-10T20:04:44.207Z,68.45
2019-03-10T20:07:51.778Z,68.54
2019-03-10T20:10:58.486Z,65.81
2019-03-10T20:14:06.081Z,67.50
2019-03-10T20:17:12.596Z,68.75
2019-03-10T20:20:21.944Z,68.54
2019-03-10T20:23:30.420Z,69.24
2019-03-10T20:26:37.733Z,68.49
2019-03-10T20:29:44.802Z,69.68
2019-03-10T20:32:51.567Z,69.59
2019-03-10T20:35:58.176Z,70.88
2019-03-10T20:39:09.020Z,72.16
2019-03-10T20:42:17.486Z,70.90
2019-03-10T20:45:24.650Z,72.68
2019-03-10T20:48:31.701Z,72.55
2019-03-10T20:51:41.590Z,72.67
2019-03-10T20:54:48.715Z,72.47
2019-03-10T20:57:55.717Z,73.75
2019-03-10T21:01:02.747Z,74.17
2019-03-10T21:04:09.467Z,74.92
2019-03-10T21:07:15.771Z,74.59
2019-03-10T21:10:27.542Z,75.99
2019-03-10T21:13:34.592Z,75.76
2019-03-10T21:16:41.606Z,76.49
2019-03-10T21:19:48.932Z,76.62
2019-03-10T21:22:56.239Z,77.28
2019-03-10T21:26:03.453Z,80.32
2019-03-10T21:29:11.432Z,80.68
2019-03-10T21:32:17.963Z,81.17
2019-03-10T21:35:25.884Z,83.17
2019-03-10T21:38:32.422Z,83.21
2019-03-10T21:41:42.043Z,84.60
2019-03-10T21:44:48.831Z,84.89
2019-03-10T21:47:56.159Z,86.35
2019-03-10T21:51:03.257Z,86.96
2019-03-10T21:54:10.163Z,86.82
2019-03-10T21:57:16.770Z,87.38
2019-03-10T22:00:24.789Z,87.15
2019-03-10T22:03:31.962Z,87.16
2019-03-10T22:06:42.708Z,87.21
2019-03-10T22:09:50.874Z,86.96
2019-03-10T22:12:58.157Z,85.38
2019-03-10T22:16:04.811Z,84.44
2019-03-10T22:19:21.929Z,84.25
2019-03-10T22:22:19.897Z,83.20
2019-03-10T22:25:26.993Z,84.95
2019-03-10T22:28:33.270Z,86.18
2019-03-10T22:31:40.062Z,85.69
2019-03-10T22:34:47.110Z,83.22
2019-03-10T22:37:53.977Z,82.82
2019-03-10T22:41:00.693Z,81.37
2019-03-10T22:44:07.171Z,79.27
2019-03-10T22:47:14.091Z,80.14
2019-03-10T22:50:20.998Z,80.04
2019-03-10T22:53:28.201Z,81.66
2019-03-10T22:56:35.750Z,79.47
2019-03-10T22:59:42.537Z,77.90
2019-03-10T23:02:49.136Z,80.65
2019-03-10T23:05:55.732Z,78.35
2019-03-10T23:09:02.253Z,79.69
2019-03-10T23:12:10.740Z,80.18
2019-03-10T23:15:17.617Z,78.48
2019-03-10T23:18:24.217Z,79.23
2019-03-10T23:21:32.049Z,78.36
2019-03-10T23:24:39.186Z,77.10
2019-03-10T23:27:45.397Z,78.14
2019-03-10T23:30:52.278Z,78.64
2019-03-10T23:33:58.976Z,79.75
2019-03-10T23:37:05.463Z,79.45
2019-03-10T23:40:12.205Z,79.13
2019-03-10T23:43:18.615Z,80.85
2019-03-10T23:46:25.449Z,84.13
2019-03-10T23:49:32.289Z,80.01
2019-03-10T23:52:39.130Z,79.63
2019-03-10T23:55:45.839Z,78.62
2019-03-10T23:58:52.482Z,78.23
